Weather observations for the past three days for
Stanley Municipal Airport
Metric (Imperial)
Date Time (cdt) Wind (kph) Vis. (km) Weather Sky Cond. Temperature (ºC) Relative Humidity Wind Chill (°C) Heat Index (°C) Pressure Precipitation (cm)
Air Dwpt 6 hour altimeter (cm) sea level (mb) 1 hr 3 hr 6 hr
Max. Min.
02 17:35 N 31 G 43 16.09 Partly Cloudy FEW080 SCT090 19 -2 24% 75.92 0.0
02 17:15 N 31 G 43 16.09 Partly Cloudy SCT075 20 -2 23% 75.92 0.0
02 16:55 N 35 G 46 16.09 Partly Cloudy and Breezy SCT075 18 -2 26% 75.92 0.0
02 16:35 N 31 G 48 16.09 Mostly Cloudy BKN080 18 0 30% 75.92 0.0
02 16:15 N 37 G 48 16.09 Mostly Cloudy and Breezy FEW070 BKN080 19 0 28% 75.9 0.0
02 15:55 N 41 G 52 16.09 Partly Cloudy and Breezy SCT070 SCT085 19 0 28% 75.9 0.0
02 15:35 N 35 G 54 16.09 A Few Clouds and Breezy FEW070 18 0 30% 75.92 0.0
02 15:15 N 43 G 59 16.09 Fair and Windy CLR 20 0 26% 75.9 0.0
02 14:55 N 46 G 63 16.09 Fair and Windy CLR 19 1 30% 75.9 0.0
02 14:35 N 48 G 63 16.09 Fair and Windy CLR 19 1 30% 75.9 0.0
02 14:15 N 48 G 63 16.09 Fair and Windy CLR 19 1 30% 75.9 0.0
02 13:55 N 46 G 61 16.09 Fair and Windy CLR 19 2 32% 75.9 0.0
02 13:35 N 44 G 65 16.09 Fair and Windy CLR 19 2 32% 75.9 0.0
02 13:15 NW 41 G 56 16.09 Fair and Breezy CLR 18 2 34% 75.9 0.0
02 12:55 N 48 G 67 16.09 Fair and Windy CLR 17 1 34% 75.92 0.0
02 12:35 NW 43 G 56 16.09 Fair and Windy CLR 16 2 39% 75.92 0.0
02 12:15 N 41 G 56 16.09 Fair and Breezy CLR 17 1 34% 75.92 0.0
02 11:55 NW 44 G 56 16.09 Fair and Windy CLR 17 1 34% 75.9 0.0
02 11:35 NW 43 G 56 16.09 Fair and Windy CLR 17 0 32% 75.9 0.0
02 11:15 NW 43 G 52 16.09 Fair and Windy CLR 18 0 30% 75.9 0.0
02 10:55 NW 39 G 48 16.09 Fair and Breezy CLR 17 0 32% 75.87 0.0
02 10:35 NW 35 16.09 Fair and Breezy CLR 17 1 34% 75.9 0.0
02 10:15 NW 30 16.09 Fair CLR 15 0 36% 75.9 0.0
02 09:55 NW 24 G 41 16.09 Fair CLR 14 0 39% 75.9 0.0
02 09:35 NW 30 G 41 16.09 Fair CLR 12 -1 41% 75.9 0.0
02 09:15 NW 31 16.09 Fair CLR 13 -1 38% 75.87 0.0
02 08:55 NW 30 G 44 16.09 A Few Clouds FEW110 12 -2 38% 75.87 0.0
02 08:35 W 30 16.09 A Few Clouds FEW110 11 -2 41% 75.87 0.0
02 08:15 W 24 16.09 Fair CLR 10 -2 43% 7 75.87 0.0
02 07:55 W 26 16.09 Fair CLR 10 -2 43% 7 75.87 0.0
02 07:35 W 19 G 30 16.09 Fair CLR 10 -2 43% 8 75.9 0.0
02 07:15 W 15 16.09 A Few Clouds FEW120 9 -3 43% 7 75.9 0.0
02 06:55 SW 15 16.09 Mostly Cloudy BKN120 8 -3 46% 6 75.9 0.0
02 06:35 SW 15 16.09 Mostly Cloudy BKN120 7 -2 53% 5 75.9 0.0
02 06:15 Calm 16.09 Mostly Cloudy BKN120 8 -3 46% 75.95 0.0
02 05:55 Calm 16.09 Mostly Cloudy FEW090 BKN120 8 -3 46% 75.95 0.0
02 05:35 S 15 16.09 Overcast SCT080 OVC090 9 -2 46% 7 75.95 0.0
02 05:15 S 11 16.09 Overcast BKN080 OVC100 9 -2 46% 8 75.95 0.0
02 04:55 SW 7 16.09 Overcast OVC100 8 -3 46% 7 75.97 0.0
02 04:35 SE 11 16.09 Overcast FEW055 FEW075 OVC090 8 -3 46% 6 76 0.0
02 04:15 SE 11 16.09 Mostly Cloudy FEW050 SCT070 BKN080 8 -3 46% 6 76 0.0
02 03:55 S 13 16.09 Overcast SCT075 BKN100 OVC120 8 -3 46% 6 76.02 0.0
02 03:35 S 9 16.09 Overcast FEW075 BKN100 OVC120 7 -3 49% 5 76.05 0.0
02 03:15 SW 9 16.09 Mostly Cloudy BKN110 6 -3 53% 4 76.02 0.0
02 02:55 SW 13 16.09 A Few Clouds FEW120 6 -3 53% 4 76.05 0.0
02 02:35 SW 13 16.09 Fair CLR 6 -3 53% 4 76.05 0.0
02 02:15 SW 9 16.09 Fair CLR 6 -3 53% 4 76.07 0.0
02 01:55 S 19 16.09 Fair CLR 7 -3 49% 4 76.07 0.0
02 01:35 S 19 16.09 Fair CLR 7 -3 49% 4 76.07 0.0
02 01:15 S 15 16.09 Fair CLR 5 -3 57% 2 76.12 0.0
02 00:55 SW 11 16.09 Fair CLR 5 -3 57% 3 76.15 0.0
02 00:35 SW 7 16.09 Fair CLR 5 -4 53% 4 76.15 0.0
02 00:15 SW 7 16.09 Fair CLR 6 -5 46% 5 76.17 0.0
01 23:55 SW 7 16.09 Fair CLR 6 -5 46% 5 76.17 0.0
01 23:35 SW 9 16.09 Fair CLR 6 -4 49% 4 76.2 0.0
01 23:15 SW 11 16.09 Fair CLR 6 -4 49% 4 76.23 0.0
01 22:55 SW 9 16.09 Fair CLR 7 -4 46% 5 76.23 0.0
01 22:35 SW 7 16.09 A Few Clouds FEW047 6 -4 49% 5 76.23 0.0
01 22:15 SW 7 16.09 Fair CLR 7 -4 46% 6 76.23 0.0
01 21:55 SW 11 16.09 Fair CLR 8 -4 43% 6 76.23 0.0
01 21:35 SW 11 16.09 Fair CLR 9 -4 40% 8 76.23 0.0
01 21:15 SW 7 16.09 Fair CLR 10 -5 35% 9 76.23 0.0
01 20:55 SW 13 16.09 Fair CLR 12 -5 30% 76.23 0.0
01 20:35 SW 13 16.09 Fair CLR 14 -5 27% 76.23 0.0
01 20:15 SW 15 16.09 Fair CLR 16 -6 22% 76.23 0.0
01 19:55 SW 13 G 24 16.09 Fair CLR 17 -6 20% 76.23 0.0
01 19:35 W 17 16.09 Fair CLR 17 -6 20% 76.25 0.0
01 19:15 W 15 16.09 Fair CLR 18 -6 19% 76.25 0.0
01 18:55 W 22 16.09 Fair CLR 18 -6 19% 76.25 0.0
01 18:35 W 20 G 30 16.09 Fair CLR 18 -6 19% 76.28 0.0
01 18:15 W 17 16.09 Fair CLR 18 -7 18% 76.28 0.0
01 17:55 Vrbl 9 G 26 16.09 Fair CLR 18 -7 18% 76.3 0.0
01 17:35 W 20 16.09 Fair CLR 18 -7 18% 76.3 0.0
01 17:15 W 11 G 26 16.09 A Few Clouds FEW095 18 -7 18% 76.33 0.0
01 16:55 Vrbl 11 16.09 Fair CLR 18 -7 18% 76.33 0.0
01 16:35 W 15 G 28 16.09 Fair CLR 18 -7 18% 76.35 0.0
01 16:15 N 13 16.09 Fair CLR 18 -7 18% 76.35 0.0
01 15:55 Vrbl 7 G 20 16.09 A Few Clouds FEW090 17 -7 19% 76.35 0.0
01 15:35 W 15 G 30 16.09 NULL NULL 17 -6 20% 76.38 0.0
01 15:15 Vrbl 9 16.09 NULL NULL 17 -6 20% 76.38 0.0
01 14:55 NW 7 G 20 16.09 Fair CLR 17 -7 19% 76.4 0.0
01 14:35 W 19 16.09 A Few Clouds FEW080 16 -6 22% 76.4 0.0
01 14:15 W 19 G 30 16.09 Partly Cloudy SCT080 17 -6 20% 76.4 0.0
01 13:55 W 15 G 26 16.09 Fair CLR 17 -5 22% 76.4 0.0
01 13:35 W 19 G 28 16.09 Fair CLR 16 -5 23% 76.4 0.0
01 13:15 W 20 16.09 Fair CLR 16 -5 23% 76.43 0.0
01 12:55 W 17 16.09 Fair CLR 15 -5 25% 76.43 0.0
01 12:35 W 9 G 22 16.09 Fair CLR 15 -5 25% 76.45 0.0
01 12:15 W 15 G 28 16.09 Fair CLR 15 -5 25% 76.45 0.0
01 11:55 W 19 16.09 Fair CLR 14 -5 27% 76.45 0.0
01 11:35 W 9 G 24 16.09 Fair CLR 14 -5 27% 76.48 0.0
01 11:15 W 13 G 22 16.09 Fair CLR 13 -6 26% 76.48 0.0
01 10:55 W 15 16.09 Fair CLR 12 -6 28% 76.45 0.0
01 10:35 W 13 16.09 Fair CLR 12 -6 28% 76.45 0.0
01 10:15 W 15 16.09 Fair CLR 11 -6 30% 76.45 0.0
01 09:55 W 15 16.09 Fair CLR 10 -6 32% 8 76.48 0.0
01 09:35 W 20 16.09 Fair CLR 10 -5 35% 8 76.48 0.0
01 09:15 W 11 16.09 Fair CLR 9 -4 40% 8 76.48 0.0
01 08:55 W 9 16.09 Fair CLR 6 -2 57% 4 76.48 0.0
01 08:35 Calm 16.09 Fair CLR 3 -1 75% 76.48 0.0
01 08:15 Calm 16.09 Fair CLR 1 -2 81% 76.48 0.0
01 07:55 Calm 16.09 Fair CLR -1 -2 93% 76.48 0.0
01 07:35 Calm 16.09 Fair CLR -1 -4 80% 76.45 0.0
01 07:15 Calm 16.09 Fair CLR -2 -4 86% 76.45 0.0
01 06:55 Calm 16.09 Fair CLR -2 -3 93% 76.45 0.0
01 06:35 Calm 16.09 Fair CLR -3 -4 93% 76.45 0.0
01 06:15 Calm 16.09 Fair CLR -3 -5 86% 76.43 0.0
01 05:55 W 6 16.09 Fair CLR -4 -5 93% 76.43 0.0
01 05:35 SW 6 16.09 Fair CLR -4 -4 100% 76.43 0.0
01 05:15 SW 6 16.09 Fair CLR -4 -4 100% 76.43 0.0
01 04:55 Calm 16.09 Fair CLR -4 -4 100% 76.43 0.0
01 04:35 SW 6 16.09 Fair CLR -3 -3 100% 76.4 0.0
01 04:15 Calm 16.09 Fair CLR -4 -4 100% 76.4 0.0
01 03:55 Calm 16.09 Partly Cloudy SCT080 SCT090 -4 -4 100% 76.43 0.0
01 03:35 Calm 16.09 Mostly Cloudy BKN080 -4 -4 100% 76.43 0.0
01 03:15 S 6 16.09 Fair CLR -3 -3 100% 76.43 0.0
01 02:55 SE 6 16.09 Fair CLR -2 -4 86% 76.45 0.0
01 02:35 Calm 16.09 Partly Cloudy FEW036 SCT044 -2 -4 86% 76.43 0.0
01 02:15 Calm 16.09 Partly Cloudy FEW036 SCT044 -1 -5 75% 76.43 0.0
01 01:55 Calm 16.09 Mostly Cloudy FEW035 BKN044 0 -4 75% 76.45 0.0
01 01:35 Calm 16.09 Partly Cloudy FEW036 SCT044 -1 -4 80% 76.45 0.0
01 01:15 SW 6 16.09 Partly Cloudy SCT042 SCT048 -1 -5 75% 76.43 0.0
01 00:55 SW 6 16.09 Partly Cloudy SCT043 SCT048 -1 -6 69% 76.43 0.0
01 00:35 W 6 16.09 Partly Cloudy SCT044 SCT050 -1 -6 69% 76.43 0.0
01 00:15 W 6 16.09 Partly Cloudy FEW036 SCT044 SCT050 0 -5 69% 76.43 0.0
30 23:55 W 6 16.09 Partly Cloudy FEW035 FEW041 SCT048 -2 -7 69% 76.43 0.0
30 23:35 SW 7 16.09 A Few Clouds FEW046 FEW050 0 -6 64% -2 76.43 0.0
30 23:15 SW 7 16.09 Fair CLR 1 -6 60% -1 76.43 0.0
30 22:55 W 9 16.09 Fair CLR 1 -6 60% -2 76.43 0.0
30 22:35 W 6 16.09 A Few Clouds FEW046 1 -6 60% 76.45 0.0
30 22:15 W 6 16.09 A Few Clouds FEW044 2 -6 56% 76.45 0.0
30 21:55 Calm 16.09 A Few Clouds FEW044 4 -5 52% 76.45 0.0
30 21:35 N 6 16.09 Fair CLR 3 -6 52% 76.45 0.0
30 21:15 N 7 16.09 Fair CLR 5 -6 45% 4 76.43 0.0
30 20:55 N 9 16.09 Fair CLR 7 -6 39% 5 76.43 0.0
30 20:35 N 11 16.09 Fair CLR 9 -6 34% 8 76.45 0.0
30 20:15 N 17 16.09 Fair CLR 10 -7 30% 8 76.43 0.0
30 19:55 N 19 16.09 Fair CLR 10 -7 30% 8 76.43 0.0
30 19:35 N 20 16.09 Fair CLR 10 -7 30% 8 76.43 0.0
30 19:15 NW 17 G 26 16.09 Fair CLR 10 -8 28% 8 76.45 0.0
30 18:55 N 17 G 28 16.09 Fair CLR 10 -7 30% 8 76.45 0.0
30 18:35 NW 17 G 33 16.09 A Few Clouds FEW070 10 -7 30% 8 76.48 0.0
30 18:15 N 20 G 31 16.09 A Few Clouds FEW070 11 -7 28% 76.45 0.0
30 17:55 NW 19 16.09 Fair CLR 11 -7 28% 76.48 0.0
30 17:35 N 19 G 28 16.09 Fair CLR 10 -7 30% 8 76.48 0.0
30 17:15 NW 15 16.09 Fair CLR 10 -7 30% 8 76.48 0.0
30 16:55 N 22 G 31 16.09 Fair CLR 10 -6 32% 7 76.48 0.0
30 16:35 N 19 G 31 16.09 Fair CLR 11 -7 28% 76.5 0.0
30 16:15 N 22 G 33 16.09 Fair CLR 10 -7 30% 7 76.53 0.0
30 15:55 NE 22 G 31 16.09 Fair CLR 10 -6 32% 7 76.5 0.0
30 15:35 Vrbl 7 G 24 16.09 Fair CLR 9 -6 34% 8 76.53 0.0
30 15:15 N 17 G 26 16.09 Fair CLR 9 -6 34% 7 76.53 0.0
30 14:55 Vrbl 11 G 26 16.09 Fair CLR 9 -6 34% 8 76.53 0.0
30 14:35 NW 17 G 30 16.09 Fair CLR 8 -7 34% 6 76.56 0.0
30 14:15 N 15 G 24 16.09 Fair CLR 8 -6 37% 6 76.56 0.0
30 13:55 NW 15 G 41 16.09 Fair CLR 8 -5 40% 6 76.58 0.0
30 13:35 Vrbl 11 G 28 16.09 Fair CLR 8 -5 40% 6 76.58 0.0
30 13:15 N 22 G 31 16.09 Fair CLR 7 -6 39% 4 76.61 0.0
30 12:55 NE 20 16.09 A Few Clouds FEW045 7 -5 43% 4 76.61 0.0
30 12:35 NE 15 G 28 16.09 Fair CLR 6 -5 46% 3 76.61 0.0
30 12:15 N 20 G 30 16.09 Fair CLR 6 -5 46% 3 76.63 0.0
30 11:55 NE 22 16.09 A Few Clouds FEW037 5 -4 53% 1 76.63 0.0
30 11:35 NE 20 G 30 16.09 Fair CLR 5 -4 53% 1 76.63 0.0
30 11:15 NE 20 16.09 Fair CLR 5 -4 53% 1 76.63 0.0
30 10:55 N 20 G 30 16.09 Fair CLR 4 -4 56% 0 76.63 0.0
30 10:35 NE 17 16.09 Fair CLR 4 -4 56% 1 76.63 0.0
30 10:15 NE 19 16.09 Fair CLR 4 -4 56% 0 76.66 0.0
30 09:55 NE 19 G 28 16.09 Fair CLR 3 -4 60% -1 76.63 0.0
30 09:35 NE 20 16.09 Fair CLR 3 -3 65% -1 76.63 0.0
30 09:15 NE 19 16.09 Fair CLR 2 -3 70% -2 76.61 0.0
30 08:55 NE 19 16.09 Fair CLR 1 -3 75% -3 76.61 0.0
30 08:35 N 19 16.09 Fair CLR 0 -3 80% -5 76.61 0.0
30 08:15 N 11 16.09 Fair CLR -1 -3 86% -4 76.61 0.0
30 07:55 N 13 16.09 Fair CLR -1 -3 86% -5 76.58 0.0
30 07:35 N 11 16.09 Fair CLR -2 -2 100% -6 76.58 0.0
30 07:15 N 13 16.09 Fair CLR -2 -2 100% -6 76.58 0.0
30 06:55 N 13 16.09 Fair CLR -2 -2 100% -6 76.56 0.0
30 06:35 N 15 16.09 Partly Cloudy SCT060 -1 -2 93% -5 76.56 0.0
30 06:15 N 15 16.09 Overcast OVC060 0 -1 93% -4 76.56 0.0
30 05:55 N 15 16.09 Mostly Cloudy SCT060 BKN070 0 -2 87% -4 76.56 0.0
30 05:35 N 17 16.09 Overcast SCT055 OVC070 0 -1 93% -4 76.56 0.0
30 05:15 NW 17 16.09 Overcast BKN070 OVC075 -1 -2 93% -6 76.53 0.0
30 04:55 W 9 16.09 Overcast FEW026 SCT050 OVC065 1 -3 75% -2 76.53 0.0
30 04:35 NW 9 16.09 Mostly Cloudy FEW030 SCT042 BKN055 2 -4 65% -0 76.53 0.0
30 04:15 NW 15 16.09 Overcast FEW029 SCT055 OVC070 2 -5 60% -2 76.56 0.0
30 03:55 NW 13 16.09 Overcast SCT028 BKN039 OVC075 3 -5 56% 0 76.53 0.0
30 03:35 NW 15 16.09 Overcast SCT031 BKN036 OVC065 3 -5 56% -0 76.53 0.0
30 03:15 W 17 16.09 Overcast SCT028 BKN055 OVC065 2 -4 65% -2 76.53 0.0
30 02:55 W 19 16.09 Overcast FEW031 SCT041 OVC055 3 -5 56% -1 76.56 0.0
30 02:35 W 22 16.09 Overcast FEW030 SCT036 OVC050 3 -6 52% -1 76.56 0.0
30 02:15 W 17 16.09 Mostly Cloudy FEW037 SCT045 BKN055 3 -5 56% -1 76.56 0.0
30 01:55 W 20 16.09 Overcast FEW050 SCT065 OVC075 3 -6 52% -1 76.5 0.0
30 01:35 W 15 16.09 Mostly Cloudy FEW040 SCT049 BKN055 1 -6 60% -3 76.5 0.0
30 01:15 W 17 16.09 Mostly Cloudy FEW034 SCT045 BKN055 0 -6 64% -4 76.5 0.0
30 00:55 W 15 16.09 Mostly Cloudy FEW040 SCT050 BKN055 -1 -7 64% -5 76.53 0.0
30 00:35 W 17 16.09 Partly Cloudy SCT060 SCT075 SCT085 0 -7 60% -4 76.53 0.0
30 00:15 W 17 16.09 Mostly Cloudy SCT065 BKN075 1 -7 56% -3 76.53 0.0
29 23:55 W 17 16.09 Overcast FEW049 BKN065 OVC075 2 -7 52% -2 76.56 0.0
29 23:35 W 19 16.09 Overcast FEW060 OVC070 0 -7 60% -5 76.58 0.0
29 23:15 W 9 16.09 Overcast SCT055 OVC070 -1 -7 64% -4 76.58 0.0
29 22:55 W 15 16.09 Mostly Cloudy BKN055 -1 -7 64% -5 76.58 0.0
29 22:35 W 17 16.09 A Few Clouds FEW055 FEW065 -2 -7 69% -7 76.58 0.0
29 22:15 W 17 16.09 A Few Clouds FEW060 -2 -8 64% -7 76.58 0.0
29 21:55 W 13 16.09 A Few Clouds FEW070 -1 -7 64% -5 76.58 0.0
29 21:35 W 13 16.09 Mostly Cloudy BKN070 0 -8 55% -4 76.58 0.0
29 21:15 W 11 16.09 Partly Cloudy SCT070 3 -7 48% 0 76.58 0.0
29 20:55 NW 9 16.09 Partly Cloudy SCT075 5 -7 42% 3 76.58 0.0
29 20:35 NW 7 16.09 Mostly Cloudy BKN075 6 -7 39% 5 76.58 0.0
29 20:15 NW 9 16.09 A Few Clouds FEW075 6 -7 39% 4 76.58 0.0
29 19:55 NW 15 16.09 A Few Clouds FEW075 7 -8 34% 5 76.58 0.0
29 19:35 N 13 G 24 16.09 Fair CLR 7 -8 34% 5 76.58 0.0
29 19:15 NW 17 16.09 Partly Cloudy SCT065 7 -8 34% 4 76.58 0.0
29 18:55 N 11 G 24 16.09 Overcast OVC060 7 -7 37% 5 76.61 0.0
29 18:35 N 17 G 31 16.09 Overcast OVC065 7 -7 37% 4 76.61 0.0
29 18:15 N 17 G 28 16.09 Mostly Cloudy BKN070 7 -8 34% 4 76.58 0.0
29 17:55 N 17 G 28 16.09 Mostly Cloudy BKN065 7 -8 34% 4 76.58 0.0
29 17:35 N 20 16.09 Overcast OVC065 8 -8 32% 5 76.58 0.0
Date Time (cdt) Wind (kph) Vis. (km) Weather Sky Cond. Air Dwpt Max. Min. Relative Humidity Wind Chill (°C) Heat Index (°C) altimeter (cm) sea level (mb) 1 hr 3 hr 6 hr
6 hour
Temperature (ºC) Pressure Precipitation (cm)